createdAt,value
2019-01-02T00:01:48.978Z,2.83
2019-01-02T00:04:19.761Z,2.83
2019-01-02T00:06:51.200Z,5.23
2019-01-02T00:09:21.508Z,3.60
2019-01-02T00:11:52.268Z,4.47
2019-01-02T00:14:22.622Z,5.47
2019-01-02T00:16:53.220Z,4.10
2019-01-02T00:19:23.559Z,5.57
2019-01-02T00:21:54.269Z,3.30
2019-01-02T00:24:24.672Z,5.23
2019-01-02T00:27:12.999Z,4.03
2019-01-02T00:29:43.610Z,5.30
2019-01-02T00:32:14.013Z,3.87
2019-01-02T00:34:44.635Z,3.07
2019-01-02T00:37:15.004Z,4.43
2019-01-02T00:39:45.478Z,3.83
2019-01-02T00:42:15.825Z,3.67
2019-01-02T00:44:46.142Z,3.00
2019-01-02T00:47:17.862Z,3.93
2019-01-02T00:49:48.328Z,4.47
2019-01-02T00:52:19.056Z,5.70
2019-01-02T00:54:49.378Z,6.00
2019-01-02T00:57:20.111Z,2.97
2019-01-02T00:59:50.440Z,5.07
2019-01-02T01:02:21.259Z,5.33
2019-01-02T01:04:51.734Z,4.53
2019-01-02T01:07:22.496Z,4.60
2019-01-02T01:09:52.810Z,5.57
2019-01-02T01:12:23.462Z,8.03
2019-01-02T01:14:53.787Z,8.77
2019-01-02T01:17:24.646Z,10.13
2019-01-02T01:19:55.001Z,8.30
2019-01-02T01:22:25.732Z,9.27
2019-01-02T01:24:56.026Z,8.50
2019-01-02T01:27:26.367Z,8.50
2019-01-02T01:29:57.082Z,8.80
2019-01-02T01:32:27.470Z,6.37
2019-01-02T01:34:58.122Z,9.27
2019-01-02T01:37:28.440Z,5.67
2019-01-02T01:39:58.780Z,7.00
2019-01-02T01:42:29.572Z,7.53
2019-01-02T01:44:59.926Z,10.70
2019-01-02T01:47:30.296Z,7.60
2019-01-02T01:50:00.921Z,8.00
2019-01-02T01:52:31.385Z,6.70
2019-01-02T01:55:01.700Z,7.40
2019-01-02T01:57:32.039Z,7.17
2019-01-02T02:00:02.377Z,7.23
2019-01-02T02:02:33.168Z,9.33
2019-01-02T02:05:03.482Z,8.43
2019-01-02T02:07:33.875Z,11.60
2019-01-02T02:10:06.220Z,9.03
2019-01-02T02:12:36.567Z,9.30
2019-01-02T02:15:07.900Z,11.63
2019-01-02T02:17:38.547Z,11.80
2019-01-02T02:20:10.886Z,7.43
2019-01-02T02:22:41.247Z,7.43
2019-01-02T02:25:14.514Z,8.60
2019-01-02T02:27:45.927Z,9.93
2019-01-02T02:30:16.640Z,8.87
2019-01-02T02:32:48.533Z,7.37
2019-01-02T02:35:19.268Z,7.37
2019-01-02T02:37:49.623Z,6.27
2019-01-02T02:40:19.925Z,7.43
2019-01-02T02:42:50.284Z,7.83
2019-01-02T02:45:21.018Z,11.23
2019-01-02T02:47:51.681Z,10.43
2019-01-02T02:50:22.401Z,8.37
2019-01-02T02:52:53.068Z,8.97
2019-01-02T02:55:25.915Z,6.83
2019-01-02T02:57:56.267Z,7.93
2019-01-02T03:00:26.571Z,9.90
2019-01-02T03:02:56.931Z,6.53
2019-01-02T03:05:27.327Z,7.30
2019-01-02T03:07:57.766Z,7.67
2019-01-02T03:10:28.369Z,7.67
2019-01-02T03:12:59.015Z,8.63
2019-01-02T03:15:30.889Z,8.53
2019-01-02T03:18:01.371Z,6.40
2019-01-02T03:20:31.698Z,6.07
2019-01-02T03:23:02.093Z,8.00
2019-01-02T03:25:32.829Z,9.07
2019-01-02T03:28:03.583Z,8.17
2019-01-02T03:30:34.200Z,9.57
2019-01-02T03:33:04.844Z,8.30
2019-01-02T03:35:35.158Z,8.63
2019-01-02T03:38:05.542Z,8.67
2019-01-02T03:40:35.881Z,10.60
2019-01-02T03:43:06.190Z,6.53
2019-01-02T03:45:36.587Z,10.70
2019-01-02T03:48:06.891Z,7.60
2019-01-02T03:50:37.235Z,9.27
2019-01-02T03:53:07.572Z,8.50
2019-01-02T03:55:37.910Z,6.77
2019-01-02T03:58:08.212Z,8.47
2019-01-02T04:00:38.645Z,8.83
2019-01-02T04:03:09.070Z,9.53
2019-01-02T04:05:39.401Z,9.63
2019-01-02T04:08:12.007Z,8.40
2019-01-02T04:10:42.355Z,6.63
2019-01-02T04:13:12.682Z,10.33
2019-01-02T04:15:44.111Z,7.70
2019-01-02T04:18:14.431Z,5.70
2019-01-02T04:20:44.784Z,7.50
2019-01-02T04:23:15.077Z,9.33
2019-01-02T04:25:45.435Z,12.53
2019-01-02T04:28:17.329Z,11.83
2019-01-02T04:30:47.684Z,7.27
2019-01-02T04:33:18.115Z,11.37
2019-01-02T04:35:48.472Z,7.93
2019-01-02T04:38:18.795Z,9.23
2019-01-02T04:40:49.159Z,7.63
2019-01-02T04:43:19.483Z,10.23
2019-01-02T04:45:52.106Z,7.23
2019-01-02T04:48:22.411Z,9.67
2019-01-02T04:50:52.748Z,12.03
2019-01-02T04:53:23.083Z,11.97
2019-01-02T04:55:53.428Z,12.07
2019-01-02T04:58:23.752Z,11.80
2019-01-02T05:00:54.121Z,13.10
2019-01-02T05:03:24.460Z,7.17
2019-01-02T05:05:54.833Z,8.33
2019-01-02T05:08:25.219Z,14.77
2019-01-02T05:10:55.562Z,6.77
2019-01-02T05:13:25.903Z,14.03
2019-01-02T05:15:56.279Z,9.37
2019-01-02T05:18:26.654Z,11.53
2019-01-02T05:20:57.024Z,9.90
2019-01-02T05:23:27.417Z,7.70
2019-01-02T05:25:57.880Z,12.33
2019-01-02T05:28:28.214Z,12.33
2019-01-02T05:30:58.555Z,7.93
2019-01-02T05:33:28.901Z,12.37
2019-01-02T05:35:59.254Z,10.07
2019-01-02T05:38:31.074Z,10.60
2019-01-02T05:41:01.428Z,14.20
2019-01-02T05:43:31.734Z,13.00
2019-01-02T05:46:02.090Z,10.03
2019-01-02T05:48:32.518Z,12.90
2019-01-02T05:51:03.083Z,12.77
2019-01-02T05:53:33.407Z,4.50
2019-01-02T05:56:03.863Z,9.67
2019-01-02T05:58:34.203Z,7.00
2019-01-02T06:01:04.586Z,13.03
2019-01-02T06:03:34.909Z,13.37
2019-01-02T06:06:05.264Z,8.37
2019-01-02T06:08:35.706Z,12.57
2019-01-02T06:11:06.063Z,13.50
2019-01-02T06:13:36.391Z,12.33
2019-01-02T06:16:06.746Z,13.77
2019-01-02T06:18:37.114Z,13.90
2019-01-02T06:21:07.462Z,7.03
2019-01-02T06:23:37.805Z,11.67
2019-01-02T06:26:08.222Z,10.17
2019-01-02T06:28:38.550Z,12.00
2019-01-02T06:31:08.937Z,11.10
2019-01-02T06:33:39.263Z,12.90
2019-01-02T06:36:09.613Z,12.47
2019-01-02T06:38:40.849Z,11.00
2019-01-02T06:41:11.285Z,6.27
2019-01-02T06:43:41.597Z,12.07
2019-01-02T06:46:11.957Z,14.20
2019-01-02T06:48:42.289Z,9.63
2019-01-02T06:51:12.631Z,9.33
2019-01-02T06:53:42.947Z,9.63
2019-01-02T06:56:13.307Z,10.83
2019-01-02T06:58:43.664Z,7.73
2019-01-02T07:01:14.024Z,9.40
2019-01-02T07:03:44.336Z,11.27
2019-01-02T07:06:14.775Z,10.07
2019-01-02T07:08:45.124Z,13.60
2019-01-02T07:11:15.505Z,9.90
2019-01-02T07:13:46.746Z,8.33
2019-01-02T07:16:17.540Z,12.03
2019-01-02T07:18:47.938Z,10.93
2019-01-02T07:21:18.280Z,10.80
2019-01-02T07:23:48.632Z,11.73
2019-01-02T07:26:18.951Z,11.87
2019-01-02T07:28:49.379Z,11.70
2019-01-02T07:31:19.691Z,11.33
2019-01-02T07:33:56.096Z,11.40
2019-01-02T07:36:43.755Z,7.93
2019-01-02T07:39:46.834Z,10.53
2019-01-02T07:42:40.464Z,5.43
2019-01-02T07:45:47.675Z,12.17
2019-01-02T07:48:34.222Z,12.50
2019-01-02T07:51:40.749Z,7.30
2019-01-02T07:55:01.013Z,9.40
2019-01-02T07:58:33.986Z,11.83
2019-01-02T08:02:03.265Z,19.63
2019-01-02T08:05:14.798Z,3.50
2019-01-02T08:08:20.362Z,10.57
2019-01-02T08:11:56.430Z,15.73
2019-01-02T08:15:03.677Z,15.43
2019-01-02T08:18:15.447Z,15.87
2019-01-02T08:21:42.480Z,12.07
2019-01-02T08:24:45.234Z,14.27
2019-01-02T08:28:04.782Z,13.80
2019-01-02T08:31:40.863Z,10.87
2019-01-02T08:34:45.790Z,11.27
2019-01-02T08:37:55.999Z,14.53
2019-01-02T08:40:52.352Z,15.67
2019-01-02T08:43:58.251Z,10.53
2019-01-02T08:47:06.322Z,12.77
2019-01-02T08:50:19.673Z,11.57
2019-01-02T08:53:12.562Z,15.87
2019-01-02T08:56:26.289Z,12.17
2019-01-02T08:59:28.354Z,11.40
2019-01-02T09:02:37.296Z,11.90
2019-01-02T09:06:03.669Z,14.20
2019-01-02T09:09:10.094Z,14.27
2019-01-02T09:12:16.082Z,17.07
2019-01-02T09:15:39.729Z,9.70
2019-01-02T09:18:28.964Z,14.57
2019-01-02T09:21:49.204Z,12.23
2019-01-02T09:24:47.622Z,17.23
2019-01-02T09:27:34.505Z,16.43
2019-01-02T09:30:47.655Z,13.27
2019-01-02T09:34:01.143Z,17.80
2019-01-02T09:37:26.950Z,13.67
2019-01-02T09:40:11.690Z,13.93
2019-01-02T09:43:38.356Z,17.50
2019-01-02T09:46:31.716Z,8.97
2019-01-02T09:49:26.223Z,16.77
2019-01-02T09:52:51.648Z,20.70
2019-01-02T09:56:02.859Z,13.20
2019-01-02T09:59:10.164Z,17.37
2019-01-02T10:02:15.779Z,16.53
2019-01-02T10:05:32.179Z,16.23
2019-01-02T10:08:40.743Z,17.13
2019-01-02T10:11:28.434Z,12.03
2019-01-02T10:14:47.886Z,10.80
2019-01-02T10:18:14.368Z,14.67
2019-01-02T10:21:34.655Z,14.03
2019-01-02T10:24:39.535Z,14.30
2019-01-02T10:27:42.370Z,13.37
2019-01-02T10:30:49.430Z,16.70
2019-01-02T10:33:56.092Z,16.47
2019-01-02T10:36:58.472Z,13.63
2019-01-02T10:40:09.898Z,11.17
2019-01-02T10:43:12.598Z,13.00
2019-01-02T10:46:36.003Z,16.07
2019-01-02T10:49:34.483Z,13.80
2019-01-02T10:52:41.060Z,12.23
2019-01-02T10:55:39.306Z,13.80
2019-01-02T10:58:59.922Z,14.40
2019-01-02T11:02:14.801Z,14.07
2019-01-02T11:05:17.865Z,9.03
2019-01-02T11:08:35.309Z,15.40
2019-01-02T11:11:53.574Z,15.57
2019-01-02T11:15:12.903Z,15.87
2019-01-02T11:18:17.499Z,17.20
2019-01-02T11:21:21.148Z,11.00
2019-01-02T11:24:28.391Z,13.60
2019-01-02T11:27:43.812Z,13.20
2019-01-02T11:31:04.955Z,11.57
2019-01-02T11:34:02.205Z,13.80
2019-01-02T11:37:24.903Z,11.87
2019-01-02T11:40:31.139Z,13.70
2019-01-02T11:44:06.803Z,11.47
2019-01-02T11:46:37.459Z,10.80
2019-01-02T11:49:07.890Z,10.60
2019-01-02T11:51:38.289Z,10.77
2019-01-02T11:54:08.762Z,10.50
2019-01-02T11:56:39.084Z,11.97
2019-01-02T11:59:09.459Z,9.43
2019-01-02T12:01:39.846Z,15.97
2019-01-02T12:04:10.204Z,13.67
2019-01-02T12:06:40.657Z,11.97
2019-01-02T12:09:11.219Z,9.23
2019-01-02T12:11:41.692Z,9.20
2019-01-02T12:14:12.056Z,11.13
2019-01-02T12:16:42.467Z,15.80
2019-01-02T12:19:12.784Z,15.30
2019-01-02T12:21:43.223Z,13.43
2019-01-02T12:24:13.665Z,13.03
2019-01-02T12:26:44.014Z,13.07
2019-01-02T12:29:14.463Z,10.20
2019-01-02T12:31:44.848Z,14.00
2019-01-02T12:34:16.095Z,13.20
2019-01-02T12:36:47.246Z,13.10
2019-01-02T12:39:17.667Z,12.20
2019-01-02T12:41:47.989Z,11.10
2019-01-02T12:44:18.363Z,13.33
2019-01-02T12:46:48.735Z,9.03
2019-01-02T12:49:19.135Z,11.97
2019-01-02T12:51:49.462Z,14.57
2019-01-02T12:54:19.803Z,19.00
2019-01-02T12:56:50.160Z,17.10
2019-01-02T12:59:26.561Z,9.90
2019-01-02T13:02:17.524Z,20.00
2019-01-02T13:05:24.202Z,23.40
2019-01-02T13:08:40.680Z,20.13
2019-01-02T13:11:30.646Z,20.13
2019-01-02T13:14:32.656Z,14.23
2019-01-02T13:17:54.682Z,17.53
2019-01-02T13:20:40.242Z,17.17
2019-01-02T13:23:29.822Z,12.83
2019-01-02T13:26:32.802Z,11.33
2019-01-02T13:29:22.323Z,12.50
2019-01-02T13:32:08.795Z,15.27
2019-01-02T13:35:35.263Z,13.83
2019-01-02T13:38:35.844Z,14.57
2019-01-02T13:41:34.976Z,13.00
2019-01-02T13:44:45.088Z,11.83
2019-01-02T13:47:47.505Z,12.97
2019-01-02T13:50:52.436Z,9.80
2019-01-02T13:53:22.753Z,14.90
2019-01-02T13:55:53.115Z,10.67
2019-01-02T13:58:23.465Z,13.23
2019-01-02T14:00:53.870Z,8.23
2019-01-02T14:03:25.317Z,13.43
2019-01-02T14:05:55.751Z,13.40
2019-01-02T14:08:26.190Z,10.00
2019-01-02T14:10:56.705Z,12.63
2019-01-02T14:13:27.050Z,10.93
2019-01-02T14:15:57.443Z,17.13
2019-01-02T14:18:27.791Z,10.57
2019-01-02T14:20:58.198Z,9.67
2019-01-02T14:23:28.552Z,12.83
2019-01-02T14:25:59.053Z,13.60
2019-01-02T14:28:29.397Z,13.17
2019-01-02T14:30:59.786Z,9.37
2019-01-02T14:33:31.100Z,11.63
2019-01-02T14:36:01.491Z,16.70
2019-01-02T14:38:31.834Z,12.83
2019-01-02T14:41:02.253Z,11.93
2019-01-02T14:43:32.617Z,10.83
2019-01-02T14:46:03.129Z,16.53
2019-01-02T14:48:33.534Z,14.03
2019-01-02T14:51:03.941Z,11.83
2019-01-02T14:53:34.299Z,11.73
2019-01-02T14:56:04.692Z,13.37
2019-01-02T14:58:35.025Z,14.87
2019-01-02T15:01:05.370Z,18.20
2019-01-02T15:03:35.785Z,15.30
2019-01-02T15:06:06.124Z,15.23
2019-01-02T15:08:36.640Z,11.70
2019-01-02T15:11:08.386Z,14.20
2019-01-02T15:13:38.866Z,14.43
2019-01-02T15:16:09.255Z,17.43
2019-01-02T15:18:39.695Z,18.00
2019-01-02T15:21:10.097Z,14.17
2019-01-02T15:23:41.242Z,18.92
2019-01-02T15:26:11.636Z,11.70
2019-01-02T15:28:41.997Z,13.90
2019-01-02T15:31:12.468Z,18.40
2019-01-02T15:33:42.803Z,16.23
2019-01-02T15:36:13.183Z,17.20
2019-01-02T15:38:43.914Z,16.30
2019-01-02T15:41:14.429Z,15.90
2019-01-02T15:43:44.748Z,20.27
2019-01-02T15:46:15.167Z,16.10
2019-01-02T15:48:45.505Z,31.93
2019-01-02T15:51:15.911Z,13.00
2019-01-02T15:53:46.272Z,13.70
2019-01-02T15:56:16.681Z,18.40
2019-01-02T15:58:47.076Z,18.73
2019-01-02T16:01:17.481Z,18.57
2019-01-02T16:03:47.814Z,15.67
2019-01-02T16:06:18.278Z,24.40
2019-01-02T16:08:48.635Z,23.03
2019-01-02T16:11:19.138Z,19.17
2019-01-02T16:13:49.785Z,21.10
2019-01-02T16:16:20.187Z,14.60
2019-01-02T16:18:50.516Z,18.80
2019-01-02T16:21:20.902Z,16.30
2019-01-02T16:23:51.229Z,18.43
2019-01-02T16:26:21.628Z,22.80
2019-01-02T16:28:51.953Z,19.87
2019-01-02T16:31:22.358Z,23.07
2019-01-02T16:33:52.779Z,16.57
2019-01-02T16:36:23.155Z,21.67
2019-01-02T16:38:53.489Z,21.77
2019-01-02T16:41:23.965Z,25.83
2019-01-02T16:43:54.294Z,23.77
2019-01-02T16:46:24.671Z,21.43
2019-01-02T16:48:55.006Z,22.80
2019-01-02T16:51:25.395Z,17.27
2019-01-02T16:53:55.787Z,17.50
2019-01-02T16:56:26.134Z,14.70
2019-01-02T16:58:57.343Z,21.53
2019-01-02T17:01:27.679Z,16.03
2019-01-02T17:03:58.059Z,20.10
2019-01-02T17:06:28.374Z,26.27
2019-01-02T17:08:58.767Z,23.87
2019-01-02T17:11:29.101Z,25.93
2019-01-02T17:13:59.485Z,24.00
2019-01-02T17:16:29.823Z,19.10
2019-01-02T17:19:00.193Z,17.43
2019-01-02T17:21:30.526Z,24.30
2019-01-02T17:24:01.398Z,22.07
2019-01-02T17:26:31.731Z,29.07
2019-01-02T17:29:02.116Z,23.60
2019-01-02T17:31:32.484Z,36.00
2019-01-02T17:34:02.896Z,52.80
2019-01-02T17:36:33.247Z,65.87
2019-01-02T17:39:04.531Z,23.60
2019-01-02T17:41:34.877Z,23.40
2019-01-02T17:44:05.258Z,21.27
2019-01-02T17:46:35.591Z,21.97
2019-01-02T17:49:05.991Z,24.97
2019-01-02T17:51:36.323Z,24.67
2019-01-02T17:54:06.716Z,21.90
2019-01-02T17:56:37.043Z,21.70
2019-01-02T17:59:07.432Z,23.27
2019-01-02T18:01:38.070Z,25.13
2019-01-02T18:04:08.461Z,17.97
2019-01-02T18:06:38.804Z,24.57
2019-01-02T18:09:09.662Z,29.53
2019-01-02T18:11:40.047Z,30.53
2019-01-02T18:14:10.377Z,34.63
2019-01-02T18:16:40.785Z,34.67
2019-01-02T18:19:11.222Z,32.23
2019-01-02T18:21:41.685Z,26.37
2019-01-02T18:24:12.486Z,26.03
2019-01-02T18:26:42.855Z,23.83
2019-01-02T18:29:13.328Z,52.23
2019-01-02T18:31:43.792Z,34.33
2019-01-02T18:34:16.069Z,33.53
2019-01-02T18:36:46.432Z,88.03
2019-01-02T18:39:16.853Z,46.77
2019-01-02T18:41:47.191Z,36.67
2019-01-02T18:44:20.553Z,32.33
2019-01-02T18:46:49.590Z,84.00
2019-01-02T18:49:19.949Z,81.73
2019-01-02T18:51:50.267Z,48.00
2019-01-02T18:54:20.659Z,35.20
2019-01-02T18:56:51.022Z,22.90
2019-01-02T18:59:21.409Z,24.33
2019-01-02T19:01:51.748Z,28.33
2019-01-02T19:04:22.135Z,27.87
2019-01-02T19:06:52.482Z,23.80
2019-01-02T19:09:22.883Z,32.53
2019-01-02T19:11:53.593Z,35.73
2019-01-02T19:14:23.926Z,46.37
2019-01-02T19:16:54.341Z,46.80
2019-01-02T19:19:24.805Z,41.77
2019-01-02T19:21:55.141Z,48.27
2019-01-02T19:24:37.172Z,37.23
2019-01-02T19:27:08.656Z,40.33
2019-01-02T19:29:39.063Z,55.67
2019-01-02T19:32:09.396Z,51.23
2019-01-02T19:34:40.871Z,44.60
2019-01-02T19:37:11.206Z,30.73
2019-01-02T19:39:41.631Z,32.57
2019-01-02T19:42:12.059Z,30.67
2019-01-02T19:44:42.519Z,29.97
2019-01-02T19:47:12.862Z,39.10
2019-01-02T19:49:43.336Z,38.90
2019-01-02T19:52:13.658Z,41.03
2019-01-02T19:54:44.066Z,42.27
2019-01-02T19:57:14.402Z,39.80
2019-01-02T19:59:44.811Z,42.10
2019-01-02T20:02:15.196Z,49.83
2019-01-02T20:04:45.713Z,44.40
2019-01-02T20:07:16.083Z,42.43
2019-01-02T20:09:46.592Z,30.77
2019-01-02T20:12:16.944Z,27.07
2019-01-02T20:14:47.363Z,30.47
2019-01-02T20:17:17.739Z,31.07
2019-01-02T20:19:48.158Z,27.67
2019-01-02T20:22:18.488Z,32.63
2019-01-02T20:24:48.889Z,32.87
2019-01-02T20:27:19.237Z,35.47
2019-01-02T20:29:49.705Z,40.67
2019-01-02T20:32:20.286Z,30.00
2019-01-02T20:34:51.721Z,37.10
2019-01-02T20:37:22.167Z,40.10
2019-01-02T20:39:52.646Z,41.57
2019-01-02T20:42:23.685Z,35.93
2019-01-02T20:44:54.132Z,34.17
2019-01-02T20:47:24.578Z,40.47
2019-01-02T20:49:54.935Z,34.67
2019-01-02T20:52:25.269Z,35.83
2019-01-02T20:54:55.679Z,30.83
2019-01-02T20:57:26.026Z,35.23
2019-01-02T20:59:56.429Z,35.17
2019-01-02T21:02:26.838Z,38.87
2019-01-02T21:04:57.598Z,39.23
2019-01-02T21:07:28.089Z,39.33
2019-01-02T21:09:58.483Z,37.77
2019-01-02T21:12:28.820Z,37.00
2019-01-02T21:14:59.231Z,33.47
2019-01-02T21:17:29.612Z,44.63
2019-01-02T21:20:00.049Z,42.83
2019-01-02T21:22:30.498Z,46.03
2019-01-02T21:25:01.965Z,41.90
2019-01-02T21:27:32.373Z,44.00
2019-01-02T21:30:02.903Z,42.50
2019-01-02T21:32:33.395Z,43.83
2019-01-02T21:35:03.910Z,53.63
2019-01-02T21:37:34.298Z,48.83
2019-01-02T21:40:05.199Z,53.37
2019-01-02T21:42:35.526Z,52.97
2019-01-02T21:45:07.085Z,46.30
2019-01-02T21:47:37.461Z,46.00
2019-01-02T21:50:08.558Z,49.93
2019-01-02T21:52:38.895Z,43.07
2019-01-02T21:55:09.350Z,44.07
2019-01-02T21:57:39.788Z,47.37
2019-01-02T22:00:13.721Z,39.40
2019-01-02T22:02:44.052Z,52.00
2019-01-02T22:05:14.585Z,66.60
2019-01-02T22:07:44.958Z,54.30
2019-01-02T22:10:15.460Z,60.40
2019-01-02T22:12:45.812Z,61.57
2019-01-02T22:15:16.168Z,55.73
2019-01-02T22:17:46.700Z,60.97
2019-01-02T22:20:17.437Z,55.80
2019-01-02T22:22:47.867Z,66.03
2019-01-02T22:25:18.319Z,63.20
2019-01-02T22:27:48.725Z,61.77
2019-01-02T22:30:19.265Z,51.23
2019-01-02T22:32:52.589Z,60.57
2019-01-02T22:35:22.972Z,60.40
2019-01-02T22:37:53.335Z,50.13
2019-01-02T22:40:23.793Z,64.57
2019-01-02T22:42:54.218Z,61.47
2019-01-02T22:45:24.575Z,53.80
2019-01-02T22:47:54.943Z,59.97
2019-01-02T22:50:25.336Z,59.30
2019-01-02T22:52:55.759Z,62.53
2019-01-02T22:55:27.217Z,64.80
2019-01-02T22:57:57.548Z,72.10
2019-01-02T23:00:55.745Z,59.07
2019-01-02T23:03:40.856Z,77.37
2019-01-02T23:06:29.084Z,66.43
2019-01-02T23:09:30.636Z,71.07
2019-01-02T23:12:18.924Z,56.00
2019-01-02T23:15:07.201Z,68.53
2019-01-02T23:17:54.653Z,72.47
2019-01-02T23:20:50.063Z,65.60
2019-01-02T23:23:51.461Z,69.43
2019-01-02T23:26:39.406Z,79.10
2019-01-02T23:29:46.990Z,85.43
2019-01-02T23:32:42.626Z,77.10
2019-01-02T23:35:38.381Z,83.50
2019-01-02T23:38:38.134Z,69.90
2019-01-02T23:41:43.012Z,69.30
2019-01-02T23:44:32.399Z,70.93
2019-01-02T23:47:26.959Z,79.67
2019-01-02T23:50:15.279Z,72.80
2019-01-02T23:53:06.886Z,69.27
2019-01-02T23:55:59.149Z,71.03
2019-01-02T23:58:51.390Z,82.80
